createdAt,value
2019-05-11T00:05:02.109Z,15.49
2019-05-11T00:10:09.717Z,15.95
2019-05-11T00:15:17.386Z,17.13
2019-05-11T00:20:24.991Z,17.14
2019-05-11T00:25:32.646Z,16.70
2019-05-11T00:30:40.246Z,15.90
2019-05-11T00:35:47.906Z,18.85
2019-05-11T00:40:55.516Z,16.18
2019-05-11T00:46:03.228Z,18.91
2019-05-11T00:51:10.821Z,16.15
2019-05-11T00:56:18.479Z,15.83
2019-05-11T01:01:26.065Z,19.45
2019-05-11T01:06:33.737Z,17.19
2019-05-11T01:11:41.301Z,17.62
2019-05-11T01:16:48.906Z,22.98
2019-05-11T01:21:56.494Z,19.16
2019-05-11T01:27:04.172Z,19.28
2019-05-11T01:32:11.786Z,19.37
2019-05-11T01:37:19.436Z,19.74
2019-05-11T01:42:27.045Z,20.08
2019-05-11T01:47:34.658Z,19.75
2019-05-11T01:52:42.260Z,20.29
2019-05-11T01:57:49.936Z,20.56
2019-05-11T02:02:57.523Z,20.57
2019-05-11T02:08:05.195Z,21.00
2019-05-11T02:13:12.830Z,21.58
2019-05-11T02:18:20.425Z,22.16
2019-05-11T02:23:28.031Z,22.95
2019-05-11T02:28:35.706Z,23.34
2019-05-11T02:33:43.313Z,23.17
2019-05-11T02:38:51.034Z,23.57
2019-05-11T02:43:58.629Z,23.51
2019-05-11T02:49:06.297Z,23.53
2019-05-11T02:54:13.883Z,23.15
2019-05-11T02:59:21.557Z,23.57
2019-05-11T03:04:29.155Z,22.95
2019-05-11T03:09:36.764Z,27.08
2019-05-11T03:14:44.353Z,22.58
2019-05-11T03:19:52.029Z,21.37
2019-05-11T03:24:59.598Z,21.40
2019-05-11T03:30:07.392Z,26.68
2019-05-11T03:35:14.965Z,22.59
2019-05-11T03:40:22.605Z,23.19
2019-05-11T03:45:30.229Z,24.34
2019-05-11T03:50:37.922Z,33.14
2019-05-11T03:55:45.556Z,26.96
2019-05-11T04:00:53.212Z,35.16
2019-05-11T04:06:00.813Z,27.27
2019-05-11T04:11:08.464Z,27.64
2019-05-11T04:16:16.035Z,27.90
2019-05-11T04:21:23.698Z,27.66
2019-05-11T04:26:31.301Z,28.88
2019-05-11T04:31:38.952Z,28.76
2019-05-11T04:36:46.585Z,29.18
2019-05-11T04:41:54.248Z,29.62
2019-05-11T04:47:01.842Z,30.40
2019-05-11T04:52:09.564Z,30.80
2019-05-11T04:57:17.161Z,30.81
2019-05-11T05:02:27.241Z,29.52
2019-05-11T05:07:31.926Z,28.43
2019-05-11T05:12:39.581Z,29.03
2019-05-11T05:17:47.184Z,28.82
2019-05-11T05:22:54.838Z,27.94
2019-05-11T05:28:02.419Z,36.08
2019-05-11T05:33:10.074Z,28.90
2019-05-11T05:38:17.668Z,29.80
2019-05-11T05:43:27.695Z,37.61
2019-05-11T05:48:32.428Z,28.57
2019-05-11T05:53:40.091Z,29.05
2019-05-11T05:58:47.674Z,36.55
2019-05-11T06:03:55.316Z,30.52
2019-05-11T06:09:02.904Z,39.53
2019-05-11T06:14:10.631Z,32.97
2019-05-11T06:19:18.260Z,34.15
2019-05-11T06:24:25.916Z,34.55
2019-05-11T06:29:33.515Z,37.62
2019-05-11T06:34:41.144Z,37.71
2019-05-11T06:39:48.731Z,36.70
2019-05-11T06:44:56.402Z,38.05
2019-05-11T06:50:03.984Z,37.04
2019-05-11T06:55:11.630Z,38.34
2019-05-11T07:00:19.231Z,38.06
2019-05-11T07:05:26.922Z,45.82
2019-05-11T07:10:34.451Z,45.01
2019-05-11T07:15:42.065Z,43.75
2019-05-11T07:20:50.944Z,39.86
2019-05-11T07:26:00.092Z,32.40
2019-05-11T07:31:03.968Z,36.96
2019-05-11T07:36:11.594Z,29.11
2019-05-11T07:41:19.201Z,32.68
2019-05-11T07:46:28.770Z,33.74
2019-05-11T07:51:34.053Z,33.32
2019-05-11T07:56:41.714Z,28.46
2019-05-11T08:01:49.317Z,26.88
2019-05-11T08:06:58.457Z,26.15
2019-05-11T08:12:04.117Z,26.76
2019-05-11T08:17:11.771Z,26.38
2019-05-11T08:22:22.676Z,31.72
2019-05-11T08:27:28.599Z,24.05
2019-05-11T08:32:33.652Z,26.12
2019-05-11T08:37:41.306Z,20.78
2019-05-11T08:42:48.905Z,19.71
2019-05-11T08:47:57.986Z,19.07
2019-05-11T08:53:03.707Z,18.08
2019-05-11T08:58:11.396Z,21.29
2019-05-11T09:03:19.001Z,18.95
2019-05-11T09:08:28.345Z,18.74
2019-05-11T09:13:33.778Z,18.42
2019-05-11T09:18:41.417Z,17.53
2019-05-11T09:23:49.024Z,17.80
2019-05-11T09:28:58.214Z,15.97
2019-05-11T09:34:03.886Z,15.20
2019-05-11T09:39:11.536Z,16.95
2019-05-11T09:44:19.133Z,15.71
2019-05-11T09:49:42.934Z,14.47
2019-05-11T09:54:33.981Z,13.26
2019-05-11T09:59:41.640Z,12.76
2019-05-11T10:04:49.232Z,13.30
2019-05-11T10:09:58.472Z,15.63
2019-05-11T10:15:04.062Z,14.15
2019-05-11T10:20:11.695Z,13.42
2019-05-11T10:25:19.305Z,14.23
2019-05-11T10:30:27.988Z,14.02
2019-05-11T10:35:34.077Z,13.72
2019-05-11T10:40:41.705Z,14.18
2019-05-11T10:45:49.300Z,14.93
2019-05-11T10:50:57.628Z,17.40
2019-05-11T10:56:04.090Z,18.23
2019-05-11T11:01:11.777Z,17.20
2019-05-11T11:06:19.363Z,15.99
2019-05-11T11:11:27.792Z,15.71
2019-05-11T11:16:39.247Z,15.09
2019-05-11T11:21:41.357Z,14.60
2019-05-11T11:26:48.959Z,15.66
2019-05-11T11:31:58.557Z,13.56
2019-05-11T11:37:03.767Z,12.91
2019-05-11T11:42:11.432Z,11.70
2019-05-11T11:47:21.596Z,10.79
2019-05-11T11:52:27.703Z,10.04
2019-05-11T11:57:33.374Z,9.63
2019-05-11T12:02:41.047Z,9.38
2019-05-11T12:07:49.187Z,9.06
2019-05-11T12:12:57.987Z,7.79
2019-05-11T12:18:02.983Z,7.90
2019-05-11T12:23:10.612Z,7.52
2019-05-11T12:28:18.498Z,7.96
2019-05-11T12:33:27.815Z,7.96
2019-05-11T12:38:32.955Z,8.24
2019-05-11T12:43:40.653Z,9.94
2019-05-11T12:48:48.686Z,9.60
2019-05-11T12:53:57.521Z,9.36
2019-05-11T12:59:02.542Z,9.53
2019-05-11T13:04:10.167Z,8.66
2019-05-11T13:09:18.404Z,8.53
2019-05-11T13:14:24.971Z,7.48
2019-05-11T13:19:32.577Z,7.02
2019-05-11T13:24:40.273Z,7.39
2019-05-11T13:29:48.544Z,7.20
2019-05-11T13:34:55.100Z,7.33
2019-05-11T13:40:02.708Z,7.37
2019-05-11T13:45:10.386Z,7.77
2019-05-11T13:50:17.974Z,7.54
2019-05-11T13:55:25.603Z,7.50
2019-05-11T14:00:33.200Z,6.86
2019-05-11T14:05:40.843Z,7.44
2019-05-11T14:10:48.930Z,7.49
2019-05-11T14:15:55.665Z,7.28
2019-05-11T14:21:03.251Z,7.04
2019-05-11T14:26:10.954Z,7.27
2019-05-11T14:31:19.174Z,7.61
2019-05-11T14:36:28.042Z,7.40
2019-05-11T14:41:32.824Z,7.02
2019-05-11T14:46:40.531Z,8.41
2019-05-11T14:51:48.700Z,9.26
2019-05-11T14:56:55.340Z,10.88
2019-05-11T15:02:02.981Z,9.16
2019-05-11T15:07:10.678Z,10.00
2019-05-11T15:12:18.303Z,7.99
2019-05-11T15:17:28.023Z,7.71
2019-05-11T15:22:33.118Z,6.77
2019-05-11T15:27:40.799Z,7.45
2019-05-11T15:32:48.559Z,6.23
2019-05-11T15:37:58.049Z,6.70
2019-05-11T15:43:03.186Z,5.79
2019-05-11T15:48:11.805Z,5.91
2019-05-11T15:53:19.310Z,7.17
2019-05-11T15:58:29.121Z,6.75
2019-05-11T16:03:34.035Z,6.58
2019-05-11T16:08:41.669Z,6.45
2019-05-11T16:13:49.272Z,6.41
2019-05-11T16:19:10.187Z,5.89
2019-05-11T16:24:04.086Z,5.35
2019-05-11T16:29:11.717Z,4.89
2019-05-11T16:34:19.323Z,4.87
2019-05-11T16:39:28.017Z,4.65
2019-05-11T16:44:34.103Z,4.60
2019-05-11T16:49:41.754Z,4.28
2019-05-11T16:54:49.363Z,3.79
2019-05-11T16:59:58.478Z,3.92
2019-05-11T17:05:04.167Z,4.03
2019-05-11T17:10:11.904Z,3.71
2019-05-11T17:15:19.528Z,3.76
2019-05-11T17:20:27.748Z,3.72
2019-05-11T17:25:34.333Z,3.54
2019-05-11T17:30:41.947Z,3.75
2019-05-11T17:35:49.545Z,3.71
2019-05-11T17:40:57.687Z,4.13
2019-05-11T17:46:04.292Z,3.85
2019-05-11T17:51:21.089Z,3.98
2019-05-11T17:56:19.269Z,4.13
2019-05-11T18:01:27.758Z,3.91
2019-05-11T18:06:34.026Z,3.74
2019-05-11T18:11:41.666Z,3.92
2019-05-11T18:16:49.252Z,3.93
2019-05-11T18:21:57.727Z,3.88
2019-05-11T18:27:04.002Z,4.04
2019-05-11T18:32:11.715Z,3.87
2019-05-11T18:37:19.316Z,4.00
2019-05-11T18:42:26.940Z,4.13
2019-05-11T18:47:34.540Z,4.15
2019-05-11T18:52:42.167Z,4.20
2019-05-11T18:57:49.759Z,4.43
2019-05-11T19:02:58.001Z,4.11
2019-05-11T19:08:04.590Z,4.70
2019-05-11T19:13:12.265Z,4.63
2019-05-11T19:18:19.887Z,4.49
2019-05-11T19:23:28.747Z,4.37
2019-05-11T19:28:34.685Z,3.99
2019-05-11T19:33:45.456Z,3.51
2019-05-11T19:38:49.518Z,3.79
2019-05-11T19:43:57.739Z,3.63
2019-05-11T19:49:04.282Z,3.76
2019-05-11T19:54:11.922Z,3.78
2019-05-11T19:59:19.521Z,4.12
2019-05-11T20:04:28.324Z,3.77
2019-05-11T20:09:34.317Z,3.47
2019-05-11T20:14:41.974Z,3.55
2019-05-11T20:19:49.599Z,3.67
2019-05-11T20:24:58.053Z,3.52
2019-05-11T20:30:04.447Z,3.59
2019-05-11T20:35:12.097Z,3.89
2019-05-11T20:40:19.719Z,3.66
2019-05-11T20:45:28.527Z,3.99
2019-05-11T20:50:34.484Z,3.80
2019-05-11T20:55:42.133Z,3.99
2019-05-11T21:00:49.751Z,3.75
2019-05-11T21:05:58.588Z,3.70
2019-05-11T21:11:04.587Z,4.10
2019-05-11T21:16:12.236Z,4.09
2019-05-11T21:21:19.854Z,4.14
2019-05-11T21:26:28.195Z,4.24
2019-05-11T21:31:34.641Z,4.47
2019-05-11T21:36:42.302Z,4.36
2019-05-11T21:41:49.929Z,4.15
2019-05-11T21:46:57.567Z,4.16
2019-05-11T21:52:07.596Z,3.80
2019-05-11T21:57:12.373Z,3.76
2019-05-11T22:02:20.000Z,4.06
2019-05-11T22:07:27.799Z,3.78
2019-05-11T22:12:35.566Z,3.76
2019-05-11T22:17:43.238Z,4.01
2019-05-11T22:22:50.848Z,4.32
2019-05-11T22:27:58.521Z,4.10
2019-05-11T22:33:06.098Z,3.75
2019-05-11T22:38:13.884Z,4.02
2019-05-11T22:43:21.464Z,3.89
2019-05-11T22:48:29.086Z,3.63
2019-05-11T22:53:44.869Z,4.11
2019-05-11T22:58:43.836Z,3.61
2019-05-11T23:03:51.447Z,4.00
2019-05-11T23:08:59.124Z,3.62
2019-05-11T23:14:09.771Z,3.83
2019-05-11T23:19:13.941Z,3.50
2019-05-11T23:24:21.562Z,3.67
2019-05-11T23:29:29.193Z,3.33
2019-05-11T23:34:38.791Z,3.21
2019-05-11T23:39:44.018Z,3.18
2019-05-11T23:44:51.629Z,3.51
2019-05-11T23:49:59.273Z,2.99
2019-05-11T23:55:08.212Z,2.91
